Time;durP1;ratioP1;P1;durP2;ratioP2;P2;SDS_P1;SDS_P2;PMS_P1;PMS_P2;Temp;Humidity;BMP_temperature;BMP_pressure;BME280_temperature;BME280_humidity;BME280_pressure;Samples;Min_cycle;Max_cycle;Signal;HPM_P1;HPM_P2
2021/05/12 00:00:16;;;;;;;42.85;32.50;;;12.40;99.90;;;13.88;95.92;100009.03;5095464;28;20035;-81
2021/05/12 00:02:43;;;;;;;45.05;32.60;;;12.30;99.90;;;13.81;96.13;100001.38;5095841;28;20438;-81
2021/05/12 00:05:10;;;;;;;46.83;33.63;;;12.30;99.90;;;13.77;96.48;100002.59;5077217;28;20044;-82
2021/05/12 00:07:36;;;;;;;45.13;32.13;;;12.30;99.90;;;13.75;96.25;99997.34;5095243;28;20024;-80
2021/05/12 00:10:08;;;;;;;45.20;33.65;;;12.20;99.90;;;13.76;96.37;99995.38;5077357;28;20089;-83
2021/05/12 00:12:34;;;;;;;48.42;33.45;;;12.20;99.90;;;13.79;96.32;100003.78;5077771;28;20055;-81
2021/05/12 00:15:06;;;;;;;45.35;31.80;;;12.30;99.90;;;13.80;96.19;100005.41;5077317;28;20035;-82
2021/05/12 00:17:34;;;;;;;46.13;30.90;;;12.20;99.90;;;13.81;96.58;99997.78;5095685;28;20020;-82
2021/05/12 00:20:01;;;;;;;40.08;30.15;;;12.30;99.90;;;13.80;96.31;99997.00;5098402;28;20368;-82
2021/05/12 00:25:14;;;;;;;43.60;32.47;;;12.40;99.90;;;13.78;96.41;100002.19;5095759;28;20035;-83
2021/05/12 00:27:40;;;;;;;46.75;33.67;;;12.20;99.90;;;13.74;96.33;99996.56;5095435;28;20349;-83
2021/05/12 00:30:14;;;;;;;50.03;35.65;;;12.20;99.90;;;13.74;96.41;99995.78;5095478;28;20488;-81
2021/05/12 00:32:41;;;;;;;49.58;34.58;;;12.20;99.90;;;13.76;96.61;100001.78;5077295;28;20115;-82
2021/05/12 00:35:10;;;;;;;50.92;36.10;;;12.20;99.90;;;13.71;96.82;100002.16;5095273;28;20047;-81
2021/05/12 00:37:36;;;;;;;51.78;37.17;;;12.20;99.90;;;13.68;97.07;99998.13;5077975;28;20112;-80
2021/05/12 00:40:06;;;;;;;55.28;39.50;;;12.20;99.90;;;13.70;96.88;100004.19;5096659;28;20069;-80
2021/05/12 00:42:33;;;;;;;57.20;40.60;;;12.20;99.90;;;13.66;97.06;100008.97;5077630;28;20039;-80
2021/05/12 00:45:00;;;;;;;51.47;38.75;;;12.20;99.90;;;13.72;96.90;100003.75;5095653;28;20024;-83
2021/05/12 00:47:32;;;;;;;59.47;40.28;;;12.20;99.90;;;13.65;96.93;99998.94;5096187;28;20462;-83
2021/05/12 00:50:01;;;;;;;53.85;38.78;;;12.20;99.90;;;13.69;96.97;100012.97;5096109;28;20028;-83
2021/05/12 00:52:27;;;;;;;55.70;39.47;;;12.20;99.90;;;13.61;97.21;99998.09;5079610;28;20115;-84
2021/05/12 00:54:53;;;;;;;51.95;38.90;;;12.20;99.90;;;13.63;97.12;100006.13;5080997;28;20028;-83
2021/05/12 00:57:21;;;;;;;55.45;39.03;;;12.20;99.90;;;13.65;96.86;100004.53;5098779;28;20036;-82
2021/05/12 00:59:51;;;;;;;59.83;41.53;;;12.20;99.90;;;13.61;97.27;100005.75;5080501;28;20028;-84
2021/05/12 01:02:19;;;;;;;54.13;41.15;;;12.20;99.90;;;13.62;97.17;100010.13;5099001;28;20020;-82
2021/05/12 01:04:46;;;;;;;59.70;41.08;;;12.20;99.90;;;13.60;97.21;100016.16;5080334;28;20039;-83
2021/05/12 01:07:12;;;;;;;60.38;44.55;;;12.10;99.90;;;13.57;97.26;100007.72;5099040;28;20054;-82
2021/05/12 01:09:38;;;;;;;54.03;40.40;;;12.20;99.90;;;13.55;97.23;100019.31;5079556;28;20437;-82
2021/05/12 01:12:05;;;;;;;62.13;42.05;;;12.10;99.90;;;13.51;97.61;100010.09;5104072;28;20050;-82
2021/05/12 01:14:32;;;;;;;62.05;41.90;;;12.10;99.90;;;13.56;97.16;100020.13;5087967;28;20035;-83
2021/05/12 01:16:58;;;;;;;60.47;42.15;;;12.10;99.90;;;13.51;97.41;100014.91;5080858;28;20096;-82
2021/05/12 01:19:26;;;;;;;62.95;43.05;;;12.10;99.90;;;13.57;96.77;100018.94;5079600;28;20042;-81
2021/05/12 01:21:52;;;;;;;56.63;41.45;;;12.10;99.90;;;13.43;97.44;100016.84;5080496;28;20113;-82
2021/05/12 01:24:20;;;;;;;58.78;41.72;;;12.10;99.90;;;13.53;96.73;100018.91;5079672;28;20020;-83
2021/05/12 01:26:46;;;;;;;59.55;40.65;;;12.00;99.90;;;13.53;96.69;100016.13;5098225;28;20021;-83
2021/05/12 01:29:12;;;;;;;58.00;39.67;;;12.00;99.90;;;13.55;96.21;100026.97;5079784;28;20023;-82
2021/05/12 01:31:45;;;;;;;61.70;44.42;;;12.10;99.90;;;13.49;96.36;100022.88;5080457;28;20447;-81
2021/05/12 01:34:21;;;;;;;58.00;40.38;;;12.00;99.90;;;13.48;96.72;100021.31;5097169;28;20108;-83
2021/05/12 01:36:50;;;;;;;59.97;42.85;;;12.00;99.90;;;13.43;96.45;100013.25;5087966;28;20028;-82
2021/05/12 01:39:18;;;;;;;65.18;43.95;;;12.00;99.90;;;13.40;96.73;100019.63;5096151;28;20028;-81
2021/05/12 01:41:46;;;;;;;59.20;43.28;;;12.00;99.90;;;13.40;96.72;100023.25;5097402;28;20020;-82
2021/05/12 01:44:13;;;;;;;59.38;40.65;;;11.90;99.90;;;13.43;96.33;100024.47;5108372;28;20026;-82
2021/05/12 01:46:45;;;;;;;61.53;42.75;;;11.90;99.90;;;13.37;96.42;100017.63;5086981;28;20024;-83
2021/05/12 01:49:12;;;;;;;56.25;40.58;;;11.90;99.90;;;13.37;96.40;100012.00;5085910;28;20111;-81
2021/05/12 01:51:40;;;;;;;58.13;41.65;;;11.90;99.90;;;13.33;96.76;100020.41;5086137;28;20468;-81
2021/05/12 01:54:09;;;;;;;61.15;41.75;;;11.90;99.90;;;13.38;96.55;100013.63;5087473;28;20039;-81
2021/05/12 01:56:41;;;;;;;61.35;42.83;;;11.80;99.90;;;13.35;96.64;100022.81;5094246;28;20035;-83
2021/05/12 01:59:10;;;;;;;61.97;44.28;;;11.90;99.90;;;13.39;96.58;100021.63;5091160;28;20032;-82
2021/05/12 02:01:36;;;;;;;61.78;43.00;;;11.90;99.90;;;13.37;96.82;100026.03;5102882;28;20078;-83
2021/05/12 02:04:09;;;;;;;65.15;44.38;;;11.90;99.90;;;13.42;96.39;100020.06;5085326;28;20028;-84
2021/05/12 02:06:36;;;;;;;65.45;45.88;;;11.90;99.90;;;13.34;97.13;100018.41;5101035;28;20055;-83
2021/05/12 02:09:07;;;;;;;61.72;42.65;;;11.90;99.90;;;13.37;96.84;100026.03;5103407;28;20085;-84
2021/05/12 02:11:38;;;;;;;66.93;42.65;;;11.90;99.90;;;13.36;96.76;100027.22;5084940;28;20095;-83
2021/05/12 02:14:06;;;;;;;69.43;46.10;;;11.90;99.90;;;13.35;96.81;100036.84;5085169;28;20035;-86
2021/05/12 02:16:32;;;;;;;65.25;43.70;;;11.90;99.90;;;13.38;96.79;100033.25;5101790;28;20073;-82
2021/05/12 02:18:57;;;;;;;66.50;45.20;;;11.90;99.90;;;13.36;96.55;100030.03;5081413;28;20051;-82
2021/05/12 02:21:23;;;;;;;64.78;45.28;;;11.90;99.90;;;13.35;96.49;100034.84;5081870;28;20029;-82
2021/05/12 02:23:49;;;;;;;68.55;45.30;;;11.90;99.90;;;13.33;96.71;100030.81;5100221;28;20028;-82
2021/05/12 02:26:15;;;;;;;68.20;46.42;;;11.90;99.90;;;13.26;96.90;100037.19;5099590;28;20031;-84
2021/05/12 02:28:41;;;;;;;69.00;46.80;;;11.90;99.90;;;13.27;96.62;100038.78;5081212;28;20028;-82
2021/05/12 02:31:07;;;;;;;72.32;46.58;;;11.90;99.90;;;13.34;96.42;100038.84;5080844;28;20055;-82
2021/05/12 02:33:32;;;;;;;68.75;45.17;;;11.90;99.90;;;13.38;96.11;100041.69;5098922;28;20479;-82
2021/05/12 02:35:58;;;;;;;67.13;45.55;;;11.90;99.90;;;13.37;95.78;100038.06;5080827;28;20031;-82
2021/05/12 02:38:24;;;;;;;70.70;46.47;;;11.90;99.90;;;13.31;96.08;100047.22;5080561;28;20475;-82
2021/05/12 02:40:50;;;;;;;73.40;47.70;;;11.80;99.90;;;13.24;95.90;100041.56;5080180;28;20055;-81
2021/05/12 02:43:16;;;;;;;74.70;49.30;;;11.80;99.90;;;13.21;96.15;100040.38;5078920;28;20081;-82
2021/05/12 02:45:42;;;;;;;77.93;51.15;;;11.80;99.90;;;13.17;96.42;100040.34;5097398;28;20034;-83
2021/05/12 02:48:08;;;;;;;79.05;50.10;;;11.80;99.90;;;13.15;96.67;100042.72;5078356;28;20141;-82
2021/05/12 02:50:42;;;;;;;81.57;52.58;;;11.80;99.90;;;13.19;95.92;100040.78;5096860;28;20360;-83
2021/05/12 02:53:11;;;;;;;74.63;50.45;;;11.70;99.90;;;13.15;96.01;100037.13;5078693;28;20053;-82
2021/05/12 02:55:38;;;;;;;71.88;49.08;;;11.70;99.90;;;13.11;96.00;100036.28;5097739;28;20039;-82
2021/05/12 02:58:06;;;;;;;72.60;49.75;;;11.70;99.90;;;13.08;96.27;100039.03;5079215;28;20047;-83
2021/05/12 03:00:34;;;;;;;70.43;47.67;;;11.70;99.90;;;13.11;95.90;100041.09;5097673;28;20559;-83
2021/05/12 03:03:00;;;;;;;70.97;45.70;;;11.60;99.90;;;13.11;95.63;100039.09;5103072;28;20020;-80
2021/05/12 03:05:29;;;;;;;72.28;46.65;;;11.60;99.90;;;13.01;95.69;100045.41;5096451;28;20027;-83
2021/05/12 03:07:55;;;;;;;68.97;45.55;;;11.60;99.90;;;12.96;95.40;100044.97;5096213;28;20052;-81
2021/05/12 03:10:22;;;;;;;66.53;43.63;;;11.50;99.90;;;12.98;95.15;100042.56;5128681;28;20053;-80
2021/05/12 03:12:50;;;;;;;72.93;45.95;;;11.50;99.90;;;12.77;95.69;100046.00;5116486;28;20023;-81
2021/05/12 03:15:22;;;;;;;69.10;44.60;;;11.40;99.90;;;12.74;95.76;100055.19;5116744;28;20047;-81
2021/05/12 03:17:51;;;;;;;65.32;46.05;;;11.40;99.90;;;12.76;95.50;100052.00;5116475;28;20027;-82
2021/05/12 03:20:20;;;;;;;64.55;44.35;;;11.30;99.90;;;12.65;95.62;100046.28;5098609;28;20051;-81
2021/05/12 03:22:47;;;;;;;62.53;43.75;;;11.30;99.90;;;12.63;95.45;100048.69;5117241;28;20126;-82
2021/05/12 03:25:16;;;;;;;65.15;45.00;;;11.20;99.90;;;12.51;95.81;100049.78;5117194;28;20059;-82
2021/05/12 03:27:44;;;;;;;70.00;42.58;;;11.10;99.90;;;12.51;95.42;100048.97;5117264;28;20027;-82
2021/05/12 03:30:27;;;;;;;68.25;44.40;;;11.10;99.90;;;12.44;95.35;100046.09;5116304;28;20444;-82
2021/05/12 03:32:53;;;;;;;66.65;43.70;;;11.10;99.90;;;12.30;96.29;100046.75;5116709;28;20046;-82
2021/05/12 03:35:20;;;;;;;68.85;45.55;;;11.00;99.90;;;12.19;96.60;100053.44;5117641;28;20035;-80
2021/05/12 03:37:47;;;;;;;63.65;42.92;;;10.90;99.90;;;12.17;96.41;100056.59;5097252;28;20119;-81
2021/05/12 03:40:14;;;;;;;68.60;43.92;;;10.80;99.90;;;12.02;96.15;100058.44;5097105;28;20027;-81
2021/05/12 03:42:41;;;;;;;73.32;42.40;;;10.80;99.90;;;12.05;96.20;100062.47;5115515;28;20035;-82
2021/05/12 03:45:09;;;;;;;66.45;42.05;;;10.70;99.90;;;12.09;95.36;100068.91;5097088;28;20108;-80
2021/05/12 03:47:35;;;;;;;65.00;40.97;;;10.70;99.90;;;11.99;95.14;100070.41;5097349;28;20069;-80
2021/05/12 03:50:08;;;;;;;57.97;39.60;;;10.60;99.90;;;11.95;95.57;100071.53;5096764;28;20035;-81
2021/05/12 03:52:34;;;;;;;73.50;43.30;;;10.60;99.90;;;11.87;95.84;100073.47;5097109;28;20023;-82
2021/05/12 03:55:00;;;;;;;61.22;41.50;;;10.50;99.90;;;11.88;95.69;100069.47;5096530;28;20023;-80
2021/05/12 03:57:26;;;;;;;63.95;39.72;;;10.50;99.90;;;11.86;95.66;100073.81;5098098;28;20042;-80
2021/05/12 03:59:52;;;;;;;67.47;42.58;;;10.50;99.90;;;11.76;95.99;100072.50;5097961;28;20031;-80
2021/05/12 04:02:18;;;;;;;64.65;40.63;;;10.40;99.90;;;11.72;95.58;100070.88;5097022;28;20491;-85
2021/05/12 04:04:44;;;;;;;62.58;40.97;;;10.40;99.90;;;11.73;95.88;100064.88;5116122;28;20506;-82
2021/05/12 04:07:09;;;;;;;65.70;40.72;;;10.40;99.90;;;11.73;95.61;100073.28;5097859;28;20051;-80
2021/05/12 04:09:36;;;;;;;60.45;39.78;;;10.40;99.90;;;11.81;95.13;100068.59;5087381;28;20055;-83
2021/05/12 04:12:03;;;;;;;56.53;38.75;;;10.40;99.90;;;11.72;94.57;100068.84;5077813;28;20501;-83
2021/05/12 04:14:28;;;;;;;56.42;35.85;;;10.30;99.90;;;11.69;94.66;100080.00;5096046;28;20063;-82
2021/05/12 04:16:54;;;;;;;53.55;36.70;;;10.30;99.90;;;11.68;94.71;100081.16;5097655;28;20053;-81
2021/05/12 04:19:20;;;;;;;56.95;36.33;;;10.30;99.90;;;11.67;94.87;100079.53;5093740;28;20028;-83
2021/05/12 04:21:47;;;;;;;50.75;34.83;;;10.20;99.90;;;11.63;94.60;100085.09;5086089;28;20122;-83
2021/05/12 04:24:13;;;;;;;56.25;35.78;;;10.30;99.90;;;11.66;94.52;100098.31;5076526;28;20028;-81
2021/05/12 04:26:39;;;;;;;52.63;35.47;;;10.30;99.90;;;11.63;94.31;100093.47;5094880;28;20035;-82
2021/05/12 04:29:06;;;;;;;54.95;36.10;;;10.20;99.90;;;11.56;93.90;100094.19;5079754;28;20023;-83
2021/05/12 04:31:34;;;;;;;55.05;34.22;;;10.20;99.90;;;11.59;93.84;100092.66;5099822;28;20028;-80
2021/05/12 04:34:00;;;;;;;55.60;34.67;;;10.20;99.90;;;11.64;93.75;100103.50;5098718;28;20111;-83
2021/05/12 04:36:27;;;;;;;47.33;30.55;;;10.20;99.90;;;11.62;93.07;100095.47;5098454;28;20387;-84
2021/05/12 04:38:54;;;;;;;51.50;33.42;;;10.20;99.90;;;11.59;93.06;100101.81;5099189;28;20047;-82
2021/05/12 04:41:20;;;;;;;46.75;30.88;;;10.20;99.90;;;11.60;92.71;100091.44;5081455;28;20446;-82
2021/05/12 04:43:46;;;;;;;48.67;31.02;;;10.20;99.90;;;11.57;92.89;100097.78;5081487;28;20024;-84
2021/05/12 04:46:12;;;;;;;48.53;31.38;;;10.10;99.90;;;11.57;92.71;100097.78;5101681;28;20094;-82
2021/05/12 04:48:38;;;;;;;52.83;31.27;;;10.10;99.90;;;11.57;92.79;100095.81;5080283;28;20024;-85
2021/05/12 04:51:05;;;;;;;46.95;30.90;;;10.10;99.90;;;11.60;92.41;100103.44;5098987;28;20028;-83
2021/05/12 04:53:31;;;;;;;51.38;31.65;;;10.10;99.90;;;11.60;92.00;100095.03;5079967;28;20028;-84
2021/05/12 04:55:56;;;;;;;53.13;29.80;;;10.20;99.90;;;11.61;91.53;100091.06;5081164;28;20032;-85
2021/05/12 04:58:23;;;;;;;46.00;27.83;;;10.20;99.90;;;11.70;91.31;100095.56;5098628;28;20031;-84
2021/05/12 05:00:49;;;;;;;47.13;28.50;;;10.20;99.90;;;11.76;90.88;100091.28;5097791;28;20394;-86
2021/05/12 05:03:15;;;;;;;41.30;27.23;;;10.20;99.90;;;11.81;90.93;100086.19;5098791;28;20020;-84
2021/05/12 05:05:42;;;;;;;43.47;28.00;;;10.30;99.90;;;11.85;90.93;100095.41;5079877;28;20042;-83
2021/05/12 05:08:10;;;;;;;44.97;28.15;;;10.30;99.90;;;11.94;90.58;100097.94;5080189;28;20050;-85
2021/05/12 05:10:36;;;;;;;41.92;27.63;;;10.40;99.90;;;11.90;89.79;100097.88;5117782;28;20103;-81
2021/05/12 05:13:02;;;;;;;44.65;27.80;;;10.40;99.90;;;11.99;89.68;100104.00;5100893;28;20038;-84
2021/05/12 05:15:27;;;;;;;42.92;26.05;;;10.50;99.90;;;12.03;89.60;100107.66;5100329;28;20024;-82
2021/05/12 05:17:54;;;;;;;38.80;24.48;;;10.50;99.90;;;12.09;89.07;100114.53;5118738;28;20031;-83
2021/05/12 05:20:23;;;;;;;39.67;25.58;;;10.60;99.90;;;12.05;88.78;100124.06;5117758;28;20047;-84
2021/05/12 05:22:49;;;;;;;39.78;25.58;;;10.60;99.90;;;12.13;88.55;100117.38;5100210;28;20027;-85
2021/05/12 05:25:16;;;;;;;39.65;25.35;;;10.60;99.90;;;12.20;87.59;100125.81;5099930;28;20137;-85
2021/05/12 05:27:42;;;;;;;40.03;24.33;;;10.60;99.90;;;12.21;87.45;100121.84;5118788;28;20055;-82
2021/05/12 05:30:09;;;;;;;37.47;24.23;;;10.70;99.90;;;12.22;87.59;100122.66;5100172;28;20019;-84
2021/05/12 05:32:35;;;;;;;46.47;25.67;;;10.70;99.90;;;12.25;87.53;100128.31;5099327;28;20027;-84
2021/05/12 05:35:00;;;;;;;38.30;24.67;;;10.70;99.90;;;12.36;87.04;100134.81;5101784;22;20079;-84
2021/05/12 05:37:27;;;;;;;40.53;25.13;;;10.80;99.90;;;12.40;87.17;100132.06;5060659;28;20033;-80
2021/05/12 05:39:55;;;;;;;45.03;25.77;;;10.80;99.90;;;12.46;87.09;100128.53;5059021;28;20044;-81
2021/05/12 05:42:21;;;;;;;38.10;23.85;;;10.90;99.90;;;12.58;86.16;100131.09;5060870;28;20466;-79
2021/05/12 05:44:48;;;;;;;41.55;25.25;;;11.00;99.90;;;12.65;86.05;100122.75;5061545;28;20107;-83
2021/05/12 05:47:14;;;;;;;40.97;25.35;;;11.10;99.90;;;12.81;85.96;100130.91;5062167;28;20040;-81
2021/05/12 05:49:40;;;;;;;40.10;25.23;;;11.20;99.90;;;12.93;84.92;100136.25;5044952;28;20028;-80
2021/05/12 05:52:13;;;;;;;37.00;24.42;;;11.30;99.90;;;13.05;84.65;100133.13;5061993;28;20040;-81
2021/05/12 05:54:45;;;;;;;34.17;22.77;;;11.40;99.90;;;13.25;84.01;100133.75;5064124;28;20021;-82
2021/05/12 05:57:15;;;;;;;37.17;23.63;;;11.60;99.90;;;13.46;83.17;100136.69;5046991;28;20078;-83
2021/05/12 05:59:42;;;;;;;31.05;21.92;;;11.80;99.90;;;13.62;82.61;100127.97;5063409;28;20029;-78
2021/05/12 06:02:09;;;;;;;36.45;21.35;;;11.90;99.90;;;13.72;81.96;100130.06;5069408;28;20085;-80
2021/05/12 06:04:38;;;;;;;36.58;21.80;;;12.00;99.90;;;13.80;81.60;100123.31;5051908;28;20025;-81
2021/05/12 06:07:05;;;;;;;34.05;21.85;;;12.20;99.90;;;13.87;80.67;100128.94;5068445;28;20033;-83
2021/05/12 06:09:42;;;;;;;30.80;19.17;;;12.30;99.90;;;14.04;79.59;100127.41;5056708;28;20020;-83
2021/05/12 06:12:38;;;;;;;31.45;20.20;;;12.40;99.90;;;14.23;79.69;100135.53;5064893;28;20552;-81
2021/05/12 06:15:20;;;;;;;;;;;;;;;;;;;;;
2021/05/12 06:17:48;;;;;;;35.22;19.65;;;12.50;99.90;;;14.31;79.03;100125.94;5083916;28;20102;-81
2021/05/12 06:20:15;;;;;;;29.60;19.00;;;12.60;99.90;;;14.45;78.28;100137.22;5064229;28;20096;-80
2021/05/12 06:22:42;;;;;;;24.67;17.08;;;12.70;99.90;;;14.61;77.23;100139.69;5063569;28;20029;-82
2021/05/12 06:25:10;;;;;;;27.45;17.58;;;12.80;99.90;;;14.69;76.87;100144.13;5063979;28;20039;-81
2021/05/12 06:27:41;;;;;;;25.95;16.65;;;13.00;99.90;;;14.83;76.99;100149.00;5081273;28;20093;-81
2021/05/12 06:30:09;;;;;;;24.83;17.65;;;13.00;99.90;;;14.88;76.51;100159.84;5064932;28;20035;-81
2021/05/12 06:32:36;;;;;;;27.67;17.15;;;13.10;99.90;;;14.64;76.44;100158.59;5082718;28;20041;-81
2021/05/12 06:35:02;;;;;;;27.23;16.77;;;13.00;99.90;;;14.65;76.11;100166.59;5064594;28;20400;-82
2021/05/12 06:37:29;;;;;;;23.10;16.35;;;13.00;99.90;;;14.73;76.21;100165.44;5083630;28;20024;-80
2021/05/12 06:39:55;;;;;;;31.95;17.42;;;13.10;99.90;;;14.71;75.41;100165.00;5083629;28;20028;-81
2021/05/12 06:42:22;;;;;;;31.30;17.30;;;13.10;99.90;;;14.80;75.31;100163.84;5065595;28;20028;-82
2021/05/12 06:44:48;;;;;;;28.55;16.65;;;13.10;99.90;;;14.77;74.24;100159.81;5064905;28;20048;-80
2021/05/12 06:47:15;;;;;;;24.45;15.18;;;13.20;99.90;;;14.95;74.84;100157.03;5083111;28;20050;-82
2021/05/12 06:49:41;;;;;;;24.95;14.27;;;13.20;99.90;;;15.05;74.49;100157.06;5084549;28;20025;-80
2021/05/12 06:52:15;;;;;;;29.52;16.67;;;13.40;99.90;;;15.24;73.62;100162.31;5066521;28;20054;-80
2021/05/12 06:55:08;;;;;;;;;;;;;;;;;;;;;
2021/05/12 06:57:34;;;;;;;26.73;15.63;;;13.70;99.90;;;15.49;71.84;100175.59;5089551;28;20508;-82
2021/05/12 07:00:08;;;;;;;25.38;15.32;;;13.80;99.90;;;15.63;71.89;100167.13;5074334;28;20021;-82
2021/05/12 07:02:34;;;;;;;23.83;14.38;;;13.90;99.90;;;15.80;70.54;100169.91;5077871;28;20032;-82
2021/05/12 07:05:03;;;;;;;27.42;14.07;;;14.10;99.90;;;15.85;68.98;100165.91;5077928;28;20031;-80
2021/05/12 07:07:39;;;;;;;23.27;14.60;;;14.20;99.90;;;16.08;67.88;100173.88;5084098;28;20033;-80
2021/05/12 07:10:12;;;;;;;20.95;12.63;;;14.30;99.90;;;16.62;67.35;100173.31;5049060;28;20115;-79
2021/05/12 07:12:57;;;;;;;;;;;;;;;;;;;;;
2021/05/12 07:15:25;;;;;;;22.33;12.07;;;15.00;99.90;;;17.64;64.59;100168.16;5060379;28;20108;-81
2021/05/12 07:17:58;;;;;;;25.33;11.35;;;15.50;99.90;;;18.22;61.72;100162.31;5044397;28;20033;-79
2021/05/12 07:20:27;;;;;;;21.75;11.93;;;16.00;99.90;;;18.85;56.30;100162.72;5044960;28;20468;-80
2021/05/12 07:23:20;;;;;;;17.70;9.95;;;16.60;99.90;;;19.04;53.81;100172.56;5044076;28;20048;-81
2021/05/12 07:25:48;;;;;;;14.32;7.60;;;17.00;99.90;;;19.54;51.00;100164.91;5044514;28;20029;-79
2021/05/12 07:28:19;;;;;;;16.50;8.38;;;17.50;99.90;;;20.33;51.73;100168.69;5044463;28;20107;-81
2021/05/12 07:30:45;;;;;;;15.27;6.65;;;18.00;99.90;;;20.93;48.92;100167.38;5063082;28;20035;-81
2021/05/12 07:33:12;;;;;;;15.88;6.50;;;18.50;99.90;;;21.03;46.94;100163.50;5044710;28;20037;-82
2021/05/12 07:35:39;;;;;;;15.35;7.50;;;18.80;99.90;;;20.52;48.63;100156.53;5061932;28;20025;-79
2021/05/12 07:38:05;;;;;;;12.45;6.68;;;18.60;99.90;;;21.02;49.46;100152.59;5044374;28;20092;-81
2021/05/12 07:40:34;;;;;;;13.27;5.97;;;18.90;99.90;;;21.54;45.71;100156.19;5061155;28;20044;-81
2021/05/12 07:43:09;;;;;;;14.52;4.97;;;19.30;96.70;;;21.72;42.76;100164.28;5043446;28;20025;-81
2021/05/12 07:45:38;;;;;;;12.20;5.35;;;19.50;85.80;;;21.64;43.21;100170.59;5062151;28;20036;-82
2021/05/12 07:48:13;;;;;;;13.88;4.57;;;19.60;82.70;;;21.60;43.59;100167.84;5042958;28;20045;-80
2021/05/12 07:50:42;;;;;;;7.47;4.20;;;19.60;82.10;;;21.52;43.51;100170.06;5060067;28;20024;-80
2021/05/12 07:53:08;;;;;;;10.20;5.15;;;19.50;82.60;;;21.91;43.77;100171.13;5059529;28;20033;-80
2021/05/12 07:55:36;;;;;;;8.25;4.50;;;19.60;87.30;;;22.33;43.32;100172.78;5059998;28;20032;-80
2021/05/12 07:58:04;;;;;;;10.40;4.15;;;19.90;85.70;;;22.06;41.44;100173.13;5041282;28;20032;-81
2021/05/12 08:00:32;;;;;;;12.75;5.05;;;19.80;77.00;;;22.05;43.56;100174.41;5058313;28;20092;-82
2021/05/12 08:02:59;;;;;;;10.15;4.32;;;19.80;82.90;;;22.30;43.68;100170.84;5058551;28;20499;-82
2021/05/12 08:05:25;;;;;;;10.60;4.85;;;20.10;84.70;;;22.82;42.63;100166.91;5059462;28;20025;-80
2021/05/12 08:07:51;;;;;;;8.55;4.60;;;20.40;80.80;;;22.38;43.94;100160.84;5044945;28;20059;-80
2021/05/12 08:10:18;;;;;;;7.82;3.92;;;20.30;82.60;;;23.10;43.58;100169.69;5059747;28;20033;-79
2021/05/12 08:12:44;;;;;;;8.07;4.28;;;20.60;86.70;;;23.72;42.52;100166.47;5041006;28;20040;-81
2021/05/12 08:15:11;;;;;;;11.65;4.60;;;21.00;81.70;;;23.92;41.31;100169.84;5059331;28;20468;-81
2021/05/12 08:17:36;;;;;;;8.65;4.70;;;21.30;78.20;;;24.00;39.26;100162.59;5058613;28;20048;-80
2021/05/12 08:20:04;;;;;;;10.48;4.75;;;21.50;71.10;;;24.34;40.22;100162.59;5040879;28;20116;-81
2021/05/12 08:22:29;;;;;;;10.35;5.15;;;21.70;73.90;;;23.28;40.11;100166.25;5059686;28;20082;-81
2021/05/12 08:24:55;;;;;;;11.48;5.07;;;21.40;70.30;;;23.38;41.18;100161.44;5058638;28;20025;-79
2021/05/12 08:27:21;;;;;;;12.25;5.63;;;21.20;74.60;;;22.54;42.86;100168.50;5060723;28;20063;-80
2021/05/12 08:29:47;;;;;;;14.13;6.13;;;20.70;75.80;;;22.45;43.26;100157.00;5069720;28;20079;-80
2021/05/12 08:32:16;;;;;;;15.80;6.85;;;20.50;77.80;;;22.34;43.84;100162.22;5065067;28;20032;-79
2021/05/12 08:34:42;;;;;;;10.90;5.85;;;20.30;81.80;;;21.94;44.90;100158.84;5049147;28;20388;-83
2021/05/12 08:37:08;;;;;;;10.95;6.18;;;19.90;86.70;;;21.21;45.35;100160.28;5051490;28;20113;-79
2021/05/12 08:39:46;;;;;;;12.80;6.70;;;19.40;87.50;;;20.78;46.16;100165.31;5046698;28;20115;-82
2021/05/12 08:42:13;;;;;;;11.57;5.60;;;19.00;90.70;;;20.07;48.44;100155.41;5042849;28;20037;-80
2021/05/12 08:44:42;;;;;;;13.05;6.22;;;18.40;96.10;;;19.92;49.98;100154.91;5060264;28;20029;-81
2021/05/12 08:47:14;;;;;;;11.48;5.45;;;18.10;99.90;;;20.04;49.30;100159.13;5063036;28;20025;-78
2021/05/12 08:49:43;;;;;;;11.88;5.53;;;18.10;99.90;;;20.09;49.15;100157.81;5062927;28;20477;-82
2021/05/12 08:52:10;;;;;;;13.05;5.40;;;18.20;99.90;;;21.09;47.86;100152.47;5063439;28;20485;-80
2021/05/12 08:54:37;;;;;;;10.15;5.43;;;18.80;99.90;;;22.19;45.10;100147.59;5062035;28;20032;-79
2021/05/12 08:57:08;;;;;;;8.75;4.93;;;19.70;95.60;;;23.15;41.25;100145.50;5064825;28;20055;-81
2021/05/12 08:59:34;;;;;;;12.73;6.03;;;20.30;81.10;;;23.61;42.30;100146.84;5067944;28;20025;-83
2021/05/12 09:02:05;;;;;;;10.50;6.20;;;20.80;85.20;;;23.56;40.21;100153.16;5066367;28;20025;-81
2021/05/12 09:04:33;;;;;;;10.13;5.45;;;21.10;74.60;;;23.39;40.19;100146.75;5099679;23;20054;-79
2021/05/12 09:07:00;;;;;;;11.98;6.65;;;21.10;72.00;;;23.84;39.98;100149.31;5096140;28;20028;-81
2021/05/12 09:09:46;;;;;;;9.15;5.75;;;21.40;72.90;;;23.91;40.23;100142.56;5086787;28;20020;-80
2021/05/12 09:12:49;;;;;;;8.75;5.70;;;21.30;73.10;;;22.70;42.44;100139.22;5099997;28;20039;-78
2021/05/12 09:15:39;;;;;;;13.23;6.63;;;20.50;76.00;;;22.03;43.70;100144.78;5088061;28;20119;-77
2021/05/12 09:18:05;;;;;;;13.05;7.25;;;20.00;81.70;;;21.15;45.08;100138.53;5115475;28;20043;-79
2021/05/12 09:20:39;;;;;;;10.45;6.10;;;19.30;86.10;;;20.52;47.07;100137.94;5103152;28;20459;-81
2021/05/12 09:23:15;;;;;;;15.70;8.40;;;18.70;93.30;;;20.02;48.93;100141.75;5108772;28;20023;-78
2021/05/12 09:25:58;;;;;;;14.15;8.40;;;18.30;99.70;;;19.74;50.71;100140.28;5122446;28;20020;-80
2021/05/12 09:28:29;;;;;;;11.30;7.10;;;17.90;99.90;;;19.77;50.88;100138.59;5098842;28;20032;-79
2021/05/12 09:31:14;;;;;;;16.88;7.72;;;17.80;99.90;;;19.56;51.41;100136.13;5111798;28;20039;-79
2021/05/12 09:33:48;;;;;;;11.25;7.72;;;17.70;99.90;;;19.26;51.80;100132.19;5119272;28;20034;-77
2021/05/12 09:36:33;;;;;;;8.50;6.15;;;17.50;99.90;;;19.13;52.93;100133.19;5120988;28;20059;-78
2021/05/12 09:38:59;;;;;;;11.65;7.05;;;17.20;99.90;;;19.08;53.12;100137.31;5104340;28;20058;-79
2021/05/12 09:41:36;;;;;;;10.77;7.45;;;17.20;99.90;;;19.11;52.84;100133.63;5111198;28;20038;-79
2021/05/12 09:44:07;;;;;;;12.85;8.27;;;17.20;99.90;;;19.05;52.87;100137.34;5088816;28;20020;-80
2021/05/12 09:46:40;;;;;;;12.07;8.80;;;17.10;99.90;;;18.96;53.13;100132.25;5117370;28;20027;-81
2021/05/12 09:49:14;;;;;;;11.50;9.07;;;17.10;99.90;;;18.95;52.75;100131.44;5093236;28;20047;-78
2021/05/12 09:51:47;;;;;;;10.95;8.50;;;17.10;99.90;;;19.08;53.03;100131.63;5108130;28;20028;-78
2021/05/12 09:54:22;;;;;;;13.65;8.20;;;17.20;99.90;;;18.99;52.50;100131.38;5093244;28;20023;-80
2021/05/12 09:56:57;;;;;;;11.63;7.93;;;17.10;99.90;;;19.04;53.13;100133.72;5127379;28;20023;-81
2021/05/12 09:59:34;;;;;;;12.75;8.65;;;17.10;99.90;;;18.84;53.12;100130.81;5130507;28;20051;-80
2021/05/12 10:02:05;;;;;;;9.68;7.47;;;16.90;99.90;;;18.66;53.21;100138.72;5129148;28;20020;-79
2021/05/12 10:04:42;;;;;;;13.02;7.97;;;16.80;99.90;;;18.53;54.15;100136.88;5129865;28;20047;-80
2021/05/12 10:07:27;;;;;;;15.63;9.00;;;16.60;99.90;;;18.42;54.26;100140.66;5130654;28;20054;-78
2021/05/12 10:09:56;;;;;;;15.20;8.07;;;16.60;99.90;;;18.51;55.42;100139.34;5125520;28;20027;-77
2021/05/12 10:12:24;;;;;;;16.88;10.43;;;16.60;99.90;;;18.94;52.01;100138.31;5121095;28;20028;-77
2021/05/12 10:14:55;;;;;;;11.00;8.48;;;16.90;99.90;;;19.78;50.41;100137.34;5121714;28;20027;-79